Time;durP1;ratioP1;P1;durP2;ratioP2;P2;SDS_P1;SDS_P2;PMS_P1;PMS_P2;Temp;Humidity;BMP_temperature;BMP_pressure;BME280_temperature;BME280_humidity;BME280_pressure;Samples;Min_cycle;Max_cycle;Signal;HPM_P1;HPM_P2
2022/11/29 00:01:11;;;;;;;19.93;14.47;;;2.00;99.90;;;;;;5092800;28;20451;-77
2022/11/29 00:03:38;;;;;;;19.17;14.57;;;2.00;99.90;;;;;;5090972;28;20490;-77
2022/11/29 00:06:07;;;;;;;18.00;13.40;;;2.00;99.90;;;;;;5088013;28;20482;-77
2022/11/29 00:08:34;;;;;;;22.77;16.43;;;2.00;99.90;;;;;;5100837;28;20465;-77
2022/11/29 00:11:05;;;;;;;21.13;15.53;;;1.90;99.90;;;;;;5092892;28;20450;-77
2022/11/29 00:13:34;;;;;;;18.87;14.23;;;1.90;99.90;;;;;;5101946;28;20514;-77
2022/11/29 00:16:05;;;;;;;21.60;13.80;;;1.90;99.90;;;;;;5089273;28;20893;-77
2022/11/29 00:18:32;;;;;;;22.60;15.90;;;1.80;99.90;;;;;;5091506;28;20599;-77
2022/11/29 00:21:00;;;;;;;20.00;13.43;;;1.90;99.90;;;;;;5095984;28;20475;-77
2022/11/29 00:23:27;;;;;;;20.67;12.97;;;1.90;99.90;;;;;;5099518;28;20981;-77
2022/11/29 00:25:54;;;;;;;21.43;14.37;;;1.90;99.90;;;;;;5094330;28;20930;-77
2022/11/29 00:28:20;;;;;;;28.93;15.50;;;2.00;99.90;;;;;;5091519;28;20502;-77
2022/11/29 00:30:49;;;;;;;20.83;15.53;;;1.90;99.90;;;;;;5090320;28;20927;-77
2022/11/29 00:33:16;;;;;;;23.80;14.23;;;2.00;99.90;;;;;;5095453;28;20482;-77
2022/11/29 00:35:43;;;;;;;26.40;15.87;;;1.90;99.90;;;;;;5103184;27;20507;-77
2022/11/29 00:38:10;;;;;;;29.93;16.40;;;1.90;99.90;;;;;;5098924;28;20578;-77
2022/11/29 00:40:37;;;;;;;23.80;16.83;;;1.90;99.90;;;;;;5100068;28;20554;-77
2022/11/29 00:43:03;;;;;;;27.53;15.83;;;1.90;99.90;;;;;;5091713;28;20499;-77
2022/11/29 00:45:31;;;;;;;21.20;15.10;;;1.80;99.90;;;;;;5094024;28;20466;-77
2022/11/29 00:47:59;;;;;;;20.77;14.90;;;1.80;99.90;;;;;;5094858;28;20458;-77
2022/11/29 00:50:26;;;;;;;22.87;14.97;;;1.80;99.90;;;;;;5086526;28;20485;-77
2022/11/29 00:52:53;;;;;;;23.03;15.30;;;1.80;99.90;;;;;;5087512;28;20906;-77
2022/11/29 00:55:19;;;;;;;30.20;15.80;;;1.80;99.90;;;;;;5096576;28;20482;-77
2022/11/29 00:57:46;;;;;;;26.60;16.03;;;1.90;99.90;;;;;;5090276;28;20832;-77
2022/11/29 01:00:14;;;;;;;24.43;16.83;;;1.90;99.90;;;;;;5085523;28;20521;-77
2022/11/29 01:02:41;;;;;;;24.43;15.10;;;1.90;99.90;;;;;;5096171;28;20490;-77
2022/11/29 01:05:10;;;;;;;23.60;15.47;;;1.90;99.90;;;;;;5092695;28;20458;-77
2022/11/29 01:07:37;;;;;;;27.50;16.57;;;1.90;99.90;;;;;;5094375;28;20473;-77
2022/11/29 01:10:05;;;;;;;22.27;13.70;;;2.00;99.90;;;;;;5087256;28;20500;-77
2022/11/29 01:12:35;;;;;;;25.27;14.73;;;2.00;99.90;;;;;;5094874;28;20470;-77
2022/11/29 01:15:02;;;;;;;24.30;15.50;;;2.00;99.90;;;;;;5099686;28;20516;-77
2022/11/29 01:17:29;;;;;;;27.37;16.40;;;2.00;99.90;;;;;;5101919;28;20461;-77
2022/11/29 01:19:56;;;;;;;30.23;16.67;;;2.10;99.90;;;;;;5102365;28;20572;-77
2022/11/29 01:22:24;;;;;;;32.10;16.13;;;2.10;99.90;;;;;;5093207;28;21083;-77
2022/11/29 01:24:51;;;;;;;27.17;17.53;;;2.10;99.90;;;;;;5098408;28;20504;-77
2022/11/29 01:27:18;;;;;;;33.27;17.00;;;2.10;99.90;;;;;;5092802;28;20563;-77
2022/11/29 01:29:45;;;;;;;31.80;18.97;;;2.10;99.90;;;;;;5100494;28;20443;-77
2022/11/29 01:32:12;;;;;;;36.17;18.77;;;2.10;99.90;;;;;;5096356;28;20502;-77
2022/11/29 01:34:39;;;;;;;32.23;18.30;;;2.20;99.90;;;;;;5103705;27;20550;-77
2022/11/29 01:37:06;;;;;;;26.70;14.97;;;2.20;99.90;;;;;;5088365;28;20497;-77
2022/11/29 01:39:35;;;;;;;28.80;18.33;;;2.20;99.90;;;;;;5096548;28;21207;-77
2022/11/29 01:42:02;;;;;;;28.00;17.17;;;2.20;99.90;;;;;;5093573;28;20911;-77
2022/11/29 01:45:01;;;;;;;31.43;18.00;;;2.20;99.90;;;;;;5104981;28;20477;-77
2022/11/29 01:47:29;;;;;;;29.50;17.93;;;2.20;99.90;;;;;;5093864;28;20461;-77
2022/11/29 01:49:56;;;;;;;24.87;16.50;;;2.30;99.90;;;;;;5097139;28;20477;-77
2022/11/29 01:52:25;;;;;;;27.17;17.10;;;2.30;99.90;;;;;;5100711;28;20566;-77
2022/11/29 01:54:58;;;;;;;29.70;18.80;;;2.30;99.90;;;;;;5097041;28;20965;-77
2022/11/29 01:57:25;;;;;;;28.77;16.37;;;2.30;99.90;;;;;;5098386;28;20554;-77
2022/11/29 01:59:56;;;;;;;28.30;18.17;;;2.30;99.90;;;;;;5100993;27;20569;-77
2022/11/29 02:02:30;;;;;;;27.23;17.97;;;2.30;99.90;;;;;;5107187;27;20792;-77
2022/11/29 02:04:59;;;;;;;31.70;16.53;;;2.30;99.90;;;;;;5095832;28;20511;-77
2022/11/29 02:07:26;;;;;;;30.43;18.57;;;2.30;99.90;;;;;;5094103;28;21624;-77
2022/11/29 02:09:54;;;;;;;31.17;18.87;;;2.30;99.90;;;;;;5091647;28;20481;-77
2022/11/29 02:12:29;;;;;;;37.33;20.20;;;2.30;99.90;;;;;;5092169;28;20494;-77
2022/11/29 02:15:21;;;;;;;23.57;16.50;;;2.30;99.90;;;;;;5102505;28;20581;-77
2022/11/29 02:18:01;;;;;;;32.77;17.67;;;2.40;99.90;;;;;;5099202;28;20540;-77
2022/11/29 02:21:06;;;;;;;31.17;16.50;;;2.30;99.90;;;;;;5098306;28;20563;-77
2022/11/29 02:24:22;;;;;;;29.50;18.70;;;2.30;99.90;;;;;;5092935;28;20921;-77
2022/11/29 02:27:22;;;;;;;32.83;18.83;;;2.30;99.90;;;;;;5096520;28;20490;-77
2022/11/29 02:30:21;;;;;;;27.73;16.67;;;2.30;99.90;;;;;;5089983;28;20533;-77
2022/11/29 02:33:22;;;;;;;30.23;16.57;;;2.40;99.90;;;;;;5092348;28;20498;-77
2022/11/29 02:36:06;;;;;;;31.50;17.87;;;2.40;99.90;;;;;;5094878;28;21026;-77
2022/11/29 02:39:00;;;;;;;32.67;18.33;;;2.30;99.90;;;;;;5088939;28;20462;-77
2022/11/29 02:41:39;;;;;;;32.13;16.60;;;2.30;99.90;;;;;;5082982;28;21152;-77
2022/11/29 02:45:03;;;;;;;32.47;17.40;;;2.30;99.90;;;;;;5096110;28;20446;-77
2022/11/29 02:47:40;;;;;;;34.53;18.20;;;2.30;99.90;;;;;;4996880;28;20505;-77
2022/11/29 02:50:19;;;;;;;28.47;16.77;;;2.30;99.90;;;;;;5095868;28;20511;-77
2022/11/29 02:52:59;;;;;;;26.50;15.30;;;2.30;99.90;;;;;;5097422;28;20481;-77
2022/11/29 02:55:33;;;;;;;26.10;15.50;;;2.30;99.90;;;;;;5094646;28;21164;-77
2022/11/29 02:58:06;;;;;;;23.77;15.03;;;2.20;99.90;;;;;;5095525;28;20472;-77
2022/11/29 03:00:37;;;;;;;25.70;14.07;;;2.20;99.90;;;;;;5094856;28;20481;-77
2022/11/29 03:03:12;;;;;;;28.10;15.27;;;2.20;99.90;;;;;;5088873;28;20483;-77
2022/11/29 03:05:47;;;;;;;32.10;15.97;;;2.30;99.90;;;;;;5093306;28;20482;-77
2022/11/29 03:08:23;;;;;;;23.30;15.07;;;2.30;99.90;;;;;;5096840;28;20498;-77
2022/11/29 03:10:59;;;;;;;30.17;15.93;;;2.30;99.90;;;;;;5091800;28;20541;-77
2022/11/29 03:13:41;;;;;;;31.43;16.27;;;2.30;99.90;;;;;;5093929;28;20582;-77
2022/11/29 03:16:17;;;;;;;28.63;17.90;;;2.20;99.90;;;;;;5094072;28;20465;-77
2022/11/29 03:18:58;;;;;;;30.13;16.83;;;2.30;99.90;;;;;;5097100;28;20497;-77
2022/11/29 03:21:37;;;;;;;32.80;16.10;;;2.20;99.90;;;;;;5094507;28;20489;-77
2022/11/29 03:24:08;;;;;;;27.90;16.67;;;2.20;99.90;;;;;;5098069;28;20485;-77
2022/11/29 03:26:41;;;;;;;23.83;16.70;;;2.20;99.90;;;;;;5087709;28;20524;-77
2022/11/29 03:29:15;;;;;;;31.03;17.77;;;2.20;99.90;;;;;;5092719;28;20573;-77
2022/11/29 03:31:47;;;;;;;25.80;15.13;;;2.30;99.90;;;;;;5096548;28;21837;-77
2022/11/29 03:34:20;;;;;;;27.50;17.63;;;2.20;99.90;;;;;;5095427;28;20519;-77
2022/11/29 03:36:55;;;;;;;24.87;16.37;;;2.20;99.90;;;;;;5093673;28;20507;-77
2022/11/29 03:39:29;;;;;;;29.23;15.73;;;2.20;99.90;;;;;;5096158;28;20482;-77
2022/11/29 03:42:01;;;;;;;25.20;16.27;;;2.30;99.90;;;;;;5089103;28;20489;-77
2022/11/29 03:44:33;;;;;;;24.90;15.90;;;2.30;99.90;;;;;;5089528;28;20443;-77
2022/11/29 03:47:06;;;;;;;27.07;14.57;;;2.20;99.90;;;;;;5096381;28;20998;-77
2022/11/29 03:49:39;;;;;;;28.73;16.10;;;2.20;99.90;;;;;;5092660;28;20486;-77
2022/11/29 03:52:15;;;;;;;30.47;16.73;;;2.20;99.90;;;;;;5093772;28;20458;-77
2022/11/29 03:54:52;;;;;;;26.90;17.00;;;2.20;99.90;;;;;;5085726;28;20490;-78
2022/11/29 03:57:31;;;;;;;35.97;16.03;;;2.20;99.90;;;;;;5098579;28;20533;-77
2022/11/29 04:00:05;;;;;;;23.80;14.23;;;2.20;99.90;;;;;;5103742;28;20508;-77
2022/11/29 04:03:13;;;;;;;23.47;15.60;;;2.20;99.90;;;;;;5090454;28;20546;-77
2022/11/29 04:06:02;;;;;;;28.57;16.53;;;2.20;99.90;;;;;;5091436;28;20962;-77
2022/11/29 04:08:52;;;;;;;28.43;15.27;;;2.20;99.90;;;;;;5091205;28;21197;-77
2022/11/29 04:11:53;;;;;;;25.23;14.60;;;2.20;99.90;;;;;;5095238;28;20547;-77
2022/11/29 04:15:07;;;;;;;28.00;16.43;;;2.10;99.90;;;;;;5088739;28;20458;-77
2022/11/29 04:18:03;;;;;;;26.60;15.67;;;2.20;99.90;;;;;;5014130;28;20496;-77
2022/11/29 04:21:15;;;;;;;31.30;17.63;;;2.20;99.90;;;;;;5057601;28;20986;-77
2022/11/29 04:24:21;;;;;;;27.97;16.57;;;2.20;99.90;;;;;;5073548;28;20983;-77
2022/11/29 04:27:23;;;;;;;25.37;14.77;;;2.20;99.90;;;;;;5088842;28;20486;-77
2022/11/29 04:30:04;;;;;;;25.57;14.60;;;2.20;99.90;;;;;;5094683;28;20483;-77
2022/11/29 04:33:05;;;;;;;26.37;15.50;;;2.20;99.90;;;;;;5090551;28;20490;-77
2022/11/29 04:35:49;;;;;;;28.20;15.40;;;2.20;99.90;;;;;;5100999;28;20473;-77
2022/11/29 04:38:42;;;;;;;29.93;17.03;;;2.20;99.90;;;;;;5097162;28;20514;-77
2022/11/29 04:41:32;;;;;;;27.30;17.00;;;2.20;99.90;;;;;;5095524;28;20579;-77
2022/11/29 04:44:19;;;;;;;29.73;16.70;;;2.20;99.90;;;;;;5096755;28;20489;-77
2022/11/29 04:47:25;;;;;;;29.23;16.60;;;2.20;99.90;;;;;;5100043;28;20539;-77
2022/11/29 04:50:11;;;;;;;21.17;14.17;;;2.20;99.90;;;;;;5051248;28;20567;-77
2022/11/29 04:52:59;;;;;;;32.60;17.00;;;2.20;99.90;;;;;;5090505;28;21037;-77
2022/11/29 04:55:37;;;;;;;28.37;15.77;;;2.10;99.90;;;;;;5101138;28;20470;-77
2022/11/29 04:58:15;;;;;;;31.30;16.03;;;2.20;99.90;;;;;;5100815;28;20496;-77
2022/11/29 05:00:49;;;;;;;25.33;14.30;;;2.10;99.90;;;;;;5102719;28;21197;-77
2022/11/29 05:03:23;;;;;;;25.73;14.97;;;2.10;99.90;;;;;;5096783;28;20462;-77
2022/11/29 05:05:57;;;;;;;31.27;16.13;;;2.10;99.90;;;;;;5096331;28;20466;-77
2022/11/29 05:08:33;;;;;;;28.90;16.00;;;2.10;99.90;;;;;;5092135;28;20557;-77
2022/11/29 05:11:07;;;;;;;27.77;16.80;;;2.10;99.90;;;;;;5105737;28;20546;-77
2022/11/29 05:13:46;;;;;;;34.67;19.60;;;2.10;99.90;;;;;;5095817;28;20463;-77
2022/11/29 05:16:32;;;;;;;26.83;16.20;;;2.10;99.90;;;;;;5100505;28;20539;-77
2022/11/29 05:19:16;;;;;;;29.53;16.10;;;2.10;99.90;;;;;;5092606;28;20549;-77
2022/11/29 05:21:52;;;;;;;29.90;16.87;;;2.10;99.90;;;;;;5094954;28;20470;-77
2022/11/29 05:24:35;;;;;;;28.70;17.63;;;2.00;99.90;;;;;;5087873;28;20530;-77
2022/11/29 05:27:12;;;;;;;28.47;16.03;;;2.00;99.90;;;;;;5097855;28;20561;-77
2022/11/29 05:29:49;;;;;;;27.57;15.10;;;2.00;99.90;;;;;;5103140;28;20477;-77
2022/11/29 05:32:31;;;;;;;31.63;15.07;;;2.00;99.90;;;;;;5087969;28;20922;-77
2022/11/29 05:35:28;;;;;;;26.30;14.00;;;2.00;99.90;;;;;;5089841;28;20454;-77
2022/11/29 05:38:02;;;;;;;39.27;17.37;;;2.00;99.90;;;;;;5092941;28;20538;-77
2022/11/29 05:40:43;;;;;;;32.90;18.03;;;2.10;99.90;;;;;;5086150;28;21084;-77
2022/11/29 05:43:44;;;;;;;28.47;17.67;;;2.10;99.90;;;;;;5086201;28;20482;-77
2022/11/29 05:46:20;;;;;;;34.87;17.00;;;2.10;99.90;;;;;;5088135;28;20543;-77
2022/11/29 05:48:57;;;;;;;32.00;16.73;;;2.20;99.90;;;;;;5089729;28;20526;-77
2022/11/29 05:51:42;;;;;;;29.90;15.97;;;2.10;99.90;;;;;;5090196;28;20477;-78
2022/11/29 05:54:23;;;;;;;24.30;14.47;;;2.10;99.90;;;;;;5086927;28;20482;-78
2022/11/29 05:56:59;;;;;;;27.20;16.77;;;2.10;99.90;;;;;;5093951;28;20458;-78
2022/11/29 05:59:28;;;;;;;30.37;18.73;;;2.10;99.90;;;;;;5084430;28;20648;-78
2022/11/29 06:02:05;;;;;;;31.50;16.43;;;2.00;99.90;;;;;;5084736;28;20928;-77
2022/11/29 06:04:49;;;;;;;29.43;15.10;;;2.10;99.90;;;;;;5090914;28;20512;-77
2022/11/29 06:07:22;;;;;;;26.97;15.57;;;2.10;99.90;;;;;;5095514;28;20462;-77
2022/11/29 06:09:56;;;;;;;28.17;16.40;;;2.10;99.90;;;;;;5099804;28;20450;-77
2022/11/29 06:12:25;;;;;;;29.77;17.33;;;2.00;99.90;;;;;;5092086;28;20479;-77
2022/11/29 06:15:31;;;;;;;35.30;17.33;;;2.00;99.90;;;;;;5094916;28;20472;-77
2022/11/29 06:18:16;;;;;;;31.50;16.83;;;2.00;99.90;;;;;;5098195;28;20450;-77
2022/11/29 06:20:57;;;;;;;31.80;17.23;;;2.00;99.90;;;;;;5086453;28;20483;-77
2022/11/29 06:23:50;;;;;;;35.70;16.53;;;2.00;99.90;;;;;;5083318;28;20496;-78
2022/11/29 06:26:35;;;;;;;32.97;17.60;;;2.00;99.90;;;;;;5087446;28;20494;-77
2022/11/29 06:29:22;;;;;;;30.27;17.43;;;2.00;99.90;;;;;;5090030;28;20513;-79
2022/11/29 06:31:55;;;;;;;32.30;16.73;;;1.90;99.90;;;;;;5086993;28;20450;-79
2022/11/29 06:34:33;;;;;;;36.70;18.10;;;1.90;99.90;;;;;;5089413;28;20534;-79
2022/11/29 06:37:05;;;;;;;36.27;17.03;;;1.90;99.90;;;;;;5086873;28;20487;-80
2022/11/29 06:39:32;;;;;;;31.57;17.20;;;1.90;99.90;;;;;;5087282;28;20459;-78
2022/11/29 06:41:59;;;;;;;30.67;16.87;;;1.90;99.90;;;;;;5090298;28;20490;-79
2022/11/29 06:44:27;;;;;;;42.53;17.13;;;1.90;99.90;;;;;;5081382;28;20471;-78
2022/11/29 06:47:03;;;;;;;33.47;16.70;;;1.90;99.90;;;;;;5085585;28;20536;-78
2022/11/29 06:49:38;;;;;;;37.13;18.57;;;1.90;99.90;;;;;;5085418;28;20486;-78
2022/11/29 06:52:16;;;;;;;36.77;16.70;;;1.90;99.90;;;;;;5084679;28;21092;-81
2022/11/29 06:54:56;;;;;;;33.63;19.23;;;1.90;99.90;;;;;;5084821;28;20947;-79
2022/11/29 06:57:33;;;;;;;30.13;12.47;;;2.00;99.90;;;;;;5085613;28;20969;-79
2022/11/29 07:00:10;;;;;;;27.73;16.10;;;2.00;99.90;;;;;;5086638;28;20518;-78
2022/11/29 07:03:10;;;;;;;26.93;15.97;;;2.00;99.90;;;;;;5082555;28;20461;-79
2022/11/29 07:05:39;;;;;;;33.20;18.57;;;2.00;99.90;;;;;;5073923;28;20872;-79
2022/11/29 07:08:13;;;;;;;36.23;17.70;;;2.00;99.90;;;;;;5085931;28;20466;-76
2022/11/29 07:10:41;;;;;;;30.80;15.80;;;2.10;99.90;;;;;;5084624;28;20490;-76
2022/11/29 07:13:12;;;;;;;31.37;17.40;;;2.10;99.90;;;;;;5091268;28;20496;-76
2022/11/29 07:15:45;;;;;;;28.63;15.40;;;2.10;99.90;;;;;;5080196;28;20490;-76
2022/11/29 07:18:28;;;;;;;30.80;15.90;;;2.10;99.90;;;;;;5087172;28;21024;-77
2022/11/29 07:21:07;;;;;;;34.50;21.03;;;2.10;99.90;;;;;;5085300;28;20513;-76
2022/11/29 07:23:37;;;;;;;49.33;26.33;;;2.10;99.90;;;;;;5084699;28;20500;-76
2022/11/29 07:26:15;;;;;;;80.43;45.90;;;2.10;99.90;;;;;;5091121;28;20494;-76
2022/11/29 07:28:57;;;;;;;46.77;24.70;;;2.10;99.90;;;;;;5082179;28;20620;-76
2022/11/29 07:31:34;;;;;;;35.70;22.20;;;2.10;99.90;;;;;;5083320;28;20503;-76
2022/11/29 07:34:10;;;;;;;38.50;19.83;;;2.20;99.90;;;;;;5089776;28;20478;-76
2022/11/29 07:36:45;;;;;;;51.10;26.80;;;2.10;99.90;;;;;;5086933;28;20489;-76
2022/11/29 07:39:24;;;;;;;34.87;20.53;;;2.20;99.90;;;;;;5093202;28;21028;-76
2022/11/29 07:42:02;;;;;;;38.93;19.83;;;2.20;99.90;;;;;;5088417;28;20585;-76
2022/11/29 07:44:37;;;;;;;45.53;23.27;;;2.20;99.90;;;;;;5088215;27;20549;-76
2022/11/29 07:47:04;;;;;;;43.00;25.67;;;2.20;99.90;;;;;;5089167;28;21101;-76
2022/11/29 07:49:31;;;;;;;41.43;21.60;;;2.30;99.90;;;;;;5086681;27;21059;-77
2022/11/29 07:52:00;;;;;;;35.73;23.20;;;2.30;99.90;;;;;;5088253;28;20807;-77
2022/11/29 07:54:27;;;;;;;35.40;19.67;;;2.30;99.90;;;;;;5088253;28;20527;-79
2022/11/29 07:56:54;;;;;;;32.20;20.57;;;2.20;99.90;;;;;;5090343;28;20960;-80
2022/11/29 07:59:20;;;;;;;45.73;23.13;;;2.30;99.90;;;;;;5089619;28;20497;-77
2022/11/29 08:01:47;;;;;;;40.43;20.80;;;2.40;99.90;;;;;;5091205;28;20939;-77
2022/11/29 08:04:14;;;;;;;32.50;18.37;;;2.40;99.90;;;;;;5087104;28;20455;-77
2022/11/29 08:06:42;;;;;;;39.60;19.83;;;2.40;99.90;;;;;;5090438;27;20554;-77
2022/11/29 08:09:10;;;;;;;35.50;20.07;;;2.40;99.90;;;;;;5087936;27;20490;-77
2022/11/29 08:11:38;;;;;;;45.00;21.37;;;2.40;99.90;;;;;;5091850;28;20467;-78
2022/11/29 08:14:05;;;;;;;37.87;22.57;;;2.40;99.90;;;;;;5093902;28;21116;-77
2022/11/29 08:16:33;;;;;;;36.13;21.30;;;2.50;99.90;;;;;;5102889;28;20458;-77
2022/11/29 08:19:00;;;;;;;39.37;19.77;;;2.60;99.90;;;;;;5107616;28;20527;-77
2022/11/29 08:21:27;;;;;;;38.50;18.10;;;2.60;99.90;;;;;;5091860;28;20518;-77
2022/11/29 08:23:54;;;;;;;38.30;19.80;;;2.60;99.90;;;;;;5086877;28;20587;-77
2022/11/29 08:26:23;;;;;;;37.17;18.03;;;2.60;99.90;;;;;;5089976;28;20565;-77
2022/11/29 08:28:52;;;;;;;31.60;17.77;;;2.60;99.90;;;;;;5094713;27;20545;-77
2022/11/29 08:31:20;;;;;;;32.30;18.30;;;2.60;99.90;;;;;;5090037;28;20549;-77
2022/11/29 08:33:47;;;;;;;35.30;17.37;;;2.70;99.90;;;;;;5092380;28;20554;-77
2022/11/29 08:36:18;;;;;;;40.30;20.20;;;2.60;99.90;;;;;;5089308;28;20498;-78
2022/11/29 08:38:45;;;;;;;31.47;18.43;;;2.60;99.90;;;;;;5087390;28;20528;-77
2022/11/29 08:41:14;;;;;;;35.80;17.60;;;2.60;99.90;;;;;;5091012;28;20510;-77
2022/11/29 08:43:42;;;;;;;41.27;24.43;;;2.60;99.90;;;;;;5093575;28;20603;-77
2022/11/29 08:46:10;;;;;;;69.23;30.90;;;2.70;99.90;;;;;;5089713;28;20497;-77
2022/11/29 08:48:37;;;;;;;35.87;21.90;;;2.70;99.90;;;;;;5090061;28;20481;-77
2022/11/29 08:51:04;;;;;;;39.70;18.17;;;2.70;99.90;;;;;;5095192;28;20490;-77
2022/11/29 08:53:43;;;;;;;39.87;17.53;;;2.70;99.90;;;;;;5084651;28;20482;-77
2022/11/29 08:56:12;;;;;;;33.47;19.60;;;2.80;99.90;;;;;;5091542;28;20454;-78
2022/11/29 08:58:39;;;;;;;31.30;18.90;;;2.80;99.90;;;;;;5092552;28;20462;-79
2022/11/29 09:01:13;;;;;;;30.93;17.33;;;2.90;99.90;;;;;;5089667;28;20483;-80
2022/11/29 09:06:25;;;;;;;35.47;21.37;;;2.80;99.90;;;;;;5090043;28;20596;-79
2022/11/29 09:08:55;;;;;;;27.97;16.97;;;2.80;99.90;;;;;;5092332;28;20474;-79
2022/11/29 09:11:23;;;;;;;34.87;21.00;;;2.90;99.90;;;;;;5092742;28;20458;-79
2022/11/29 09:13:52;;;;;;;34.77;18.83;;;2.90;99.90;;;;;;5087354;28;20960;-79
2022/11/29 09:16:24;;;;;;;32.90;18.93;;;2.80;99.90;;;;;;5090676;28;20490;-79
2022/11/29 09:18:54;;;;;;;33.33;17.60;;;2.90;99.90;;;;;;5090579;28;20453;-79
2022/11/29 09:21:23;;;;;;;32.70;18.10;;;2.80;99.90;;;;;;5095962;27;20481;-79
2022/11/29 09:23:56;;;;;;;39.30;17.60;;;3.00;99.90;;;;;;5092751;28;20458;-79
2022/11/29 09:26:26;;;;;;;28.43;17.67;;;3.00;99.90;;;;;;5092069;28;20599;-77
2022/11/29 09:28:53;;;;;;;27.60;15.30;;;3.00;99.90;;;;;;5089772;28;20539;-79
2022/11/29 09:31:21;;;;;;;33.37;16.67;;;3.10;99.90;;;;;;5097582;27;20490;-78
2022/11/29 09:33:48;;;;;;;29.50;16.67;;;3.10;99.90;;;;;;5101199;28;20473;-79
2022/11/29 09:36:15;;;;;;;31.27;18.03;;;3.20;99.90;;;;;;5096533;28;21003;-78
2022/11/29 09:38:42;;;;;;;35.37;15.83;;;3.20;99.90;;;;;;5092144;28;20535;-79
2022/11/29 09:41:38;;;;;;;31.07;17.00;;;3.30;99.90;;;;;;5096887;28;20520;-79
2022/11/29 09:44:14;;;;;;;30.40;16.40;;;3.40;99.90;;;;;;5090671;28;20536;-78
2022/11/29 09:46:50;;;;;;;34.20;18.73;;;3.40;99.90;;;;;;5091533;28;20461;-79
2022/11/29 09:49:43;;;;;;;33.20;15.83;;;3.40;99.90;;;;;;5087091;28;20497;-79
2022/11/29 09:52:19;;;;;;;25.73;15.17;;;3.60;99.90;;;;;;5090863;28;20556;-76
2022/11/29 09:54:55;;;;;;;23.57;14.27;;;3.70;99.90;;;;;;5090622;28;21080;-78
2022/11/29 09:57:25;;;;;;;32.07;17.63;;;3.60;99.90;;;;;;5092540;28;20482;-78
2022/11/29 09:59:57;;;;;;;26.37;16.00;;;3.70;99.90;;;;;;5085551;28;20507;-79
2022/11/29 10:02:33;;;;;;;35.17;16.47;;;3.80;99.90;;;;;;5090235;28;20550;-76
2022/11/29 10:05:05;;;;;;;24.80;15.00;;;4.00;99.90;;;;;;5087831;28;20505;-76
2022/11/29 10:07:37;;;;;;;27.80;14.90;;;4.10;99.90;;;;;;5085517;28;20462;-76
2022/11/29 10:10:09;;;;;;;35.87;19.77;;;4.30;99.90;;;;;;5090617;28;21062;-76
2022/11/29 10:12:41;;;;;;;31.27;16.70;;;4.50;99.90;;;;;;5087037;28;20491;-76
2022/11/29 10:15:15;;;;;;;25.10;14.10;;;4.40;99.90;;;;;;5092000;28;20449;-76
2022/11/29 10:17:50;;;;;;;25.00;15.20;;;4.30;99.90;;;;;;5089617;28;20454;-78
2022/11/29 10:20:20;;;;;;;33.50;15.67;;;4.20;99.90;;;;;;5092142;28;20505;-77
2022/11/29 10:22:53;;;;;;;25.80;14.47;;;4.10;99.90;;;;;;5102677;28;20479;-78
2022/11/29 10:25:24;;;;;;;23.93;13.37;;;4.10;99.90;;;;;;5109771;27;21153;-78
2022/11/29 10:27:52;;;;;;;21.87;13.90;;;4.10;99.90;;;;;;5102087;28;20526;-76
2022/11/29 10:30:19;;;;;;;24.30;15.10;;;4.00;99.90;;;;;;5094966;28;20511;-77
2022/11/29 10:32:55;;;;;;;24.00;13.97;;;4.00;99.90;;;;;;5087938;28;20486;-78
2022/11/29 10:35:22;;;;;;;33.13;15.47;;;4.00;99.90;;;;;;5099154;28;20493;-77
2022/11/29 10:37:52;;;;;;;20.43;14.07;;;4.00;99.90;;;;;;5083676;28;20540;-77
2022/11/29 10:40:22;;;;;;;28.40;15.30;;;4.10;99.90;;;;;;5092794;27;20494;-77
2022/11/29 10:42:51;;;;;;;22.73;14.90;;;4.10;99.90;;;;;;5088846;28;20493;-77
2022/11/29 10:45:26;;;;;;;25.20;13.83;;;4.10;99.90;;;;;;5089494;28;20449;-77
2022/11/29 10:48:07;;;;;;;29.60;13.53;;;4.20;99.90;;;;;;5092718;28;20477;-81
2022/11/29 10:50:36;;;;;;;23.47;13.73;;;4.20;99.90;;;;;;5083820;28;20504;-78
2022/11/29 10:53:06;;;;;;;24.13;15.87;;;4.30;99.90;;;;;;5084337;28;20590;-77
2022/11/29 10:55:40;;;;;;;26.90;13.70;;;4.20;99.90;;;;;;5084233;28;20487;-77
2022/11/29 10:58:18;;;;;;;26.20;13.10;;;4.20;99.90;;;;;;5100046;28;20534;-78
2022/11/29 11:00:47;;;;;;;32.93;16.33;;;4.20;99.90;;;;;;5084227;28;20466;-78
2022/11/29 11:03:24;;;;;;;24.10;13.13;;;4.30;99.90;;;;;;5085033;28;20490;-78
2022/11/29 11:06:04;;;;;;;23.07;15.03;;;4.30;99.90;;;;;;5082315;28;20489;-78
2022/11/29 11:08:32;;;;;;;23.33;15.27;;;4.30;99.90;;;;;;5088332;28;20457;-78
2022/11/29 11:10:59;;;;;;;32.10;17.77;;;4.30;99.90;;;;;;5091811;28;20539;-78
2022/11/29 11:13:29;;;;;;;37.43;21.40;;;4.20;99.90;;;;;;5091590;28;20485;-77
2022/11/29 11:15:57;;;;;;;24.40;18.13;;;4.20;99.90;;;;;;5089913;28;20498;-77
2022/11/29 11:18:29;;;;;;;28.73;15.50;;;4.10;99.90;;;;;;5091189;28;20560;-77
2022/11/29 11:20:58;;;;;;;25.33;15.00;;;4.10;99.90;;;;;;5094969;28;20494;-77
2022/11/29 11:23:28;;;;;;;30.60;14.30;;;4.10;99.90;;;;;;5090539;28;20474;-76
2022/11/29 11:26:01;;;;;;;25.97;15.20;;;4.10;99.90;;;;;;5091579;28;20558;-77
2022/11/29 11:28:34;;;;;;;23.50;14.63;;;4.20;99.90;;;;;;5088248;28;20656;-77
2022/11/29 11:31:04;;;;;;;20.67;12.37;;;4.10;99.90;;;;;;5089737;28;20539;-76
2022/11/29 11:33:38;;;;;;;35.80;16.77;;;4.20;99.90;;;;;;5088398;27;20930;-76
2022/11/29 11:36:12;;;;;;;24.23;14.90;;;4.20;99.90;;;;;;5095265;27;20558;-76
2022/11/29 11:38:48;;;;;;;24.97;14.37;;;4.10;99.90;;;;;;5088024;28;20461;-76
2022/11/29 11:41:21;;;;;;;27.20;15.43;;;4.30;99.90;;;;;;5089663;27;20634;-77
2022/11/29 11:43:55;;;;;;;20.77;13.53;;;4.10;99.90;;;;;;5092525;28;20487;-77
2022/11/29 11:46:22;;;;;;;25.17;14.13;;;4.00;99.90;;;;;;5097192;28;21162;-76
2022/11/29 11:48:51;;;;;;;23.50;14.10;;;3.90;99.90;;;;;;5086512;28;20570;-77
2022/11/29 11:51:24;;;;;;;19.23;12.10;;;4.00;99.90;;;;;;5088562;28;20909;-76
2022/11/29 11:53:55;;;;;;;28.67;16.00;;;3.90;99.90;;;;;;5095490;28;20494;-77
2022/11/29 11:56:24;;;;;;;20.77;14.27;;;3.90;99.90;;;;;;5096606;28;20946;-77
2022/11/29 11:58:54;;;;;;;23.70;14.50;;;4.00;99.90;;;;;;5098988;28;20453;-76
2022/11/29 12:01:29;;;;;;;23.60;13.50;;;4.00;99.90;;;;;;5090084;28;20502;-76
2022/11/29 12:04:05;;;;;;;23.00;14.47;;;4.00;99.90;;;;;;5096971;28;20494;-77
2022/11/29 12:06:41;;;;;;;24.40;14.07;;;3.80;99.90;;;;;;5103052;27;20545;-77
2022/11/29 12:09:18;;;;;;;25.20;14.60;;;3.90;99.90;;;;;;5099122;28;20517;-77
2022/11/29 12:11:49;;;;;;;20.90;13.60;;;4.00;99.90;;;;;;5089808;28;20458;-77
2022/11/29 12:14:28;;;;;;;27.50;13.63;;;3.90;99.90;;;;;;5087019;28;20498;-77
2022/11/29 12:17:05;;;;;;;28.83;15.47;;;3.90;99.90;;;;;;5093920;28;20469;-76
2022/11/29 12:19:43;;;;;;;24.73;13.80;;;4.10;99.90;;;;;;5093676;28;21005;-78
2022/11/29 12:22:16;;;;;;;21.47;13.33;;;4.10;99.90;;;;;;5095324;28;21032;-78
2022/11/29 12:24:51;;;;;;;27.80;14.30;;;4.10;99.90;;;;;;5090599;28;20566;-77
2022/11/29 12:27:18;;;;;;;20.00;14.23;;;4.10;99.90;;;;;;5093135;28;20494;-76
2022/11/29 12:29:45;;;;;;;21.20;14.10;;;4.10;99.90;;;;;;5092751;28;20483;-77
2022/11/29 12:32:27;;;;;;;21.47;16.17;;;4.10;99.90;;;;;;5094189;28;20486;-76
2022/11/29 12:35:09;;;;;;;22.33;12.67;;;4.10;99.90;;;;;;5104255;28;20805;-77
2022/11/29 12:37:43;;;;;;;24.00;15.37;;;4.10;99.90;;;;;;5090145;28;20571;-77
2022/11/29 12:40:15;;;;;;;17.50;13.80;;;4.10;99.90;;;;;;5082956;28;20487;-76
2022/11/29 12:42:52;;;;;;;22.47;13.97;;;4.10;99.90;;;;;;5094554;28;20514;-76
2022/11/29 12:45:34;;;;;;;24.07;14.60;;;4.00;99.90;;;;;;5087836;28;20917;-78
2022/11/29 12:48:12;;;;;;;22.13;13.57;;;4.00;99.90;;;;;;5092801;28;20474;-78
2022/11/29 12:50:50;;;;;;;28.77;14.50;;;4.00;99.90;;;;;;5095618;28;20462;-76
2022/11/29 12:53:28;;;;;;;20.70;13.30;;;4.10;99.90;;;;;;5095994;28;20493;-77
2022/11/29 12:56:04;;;;;;;23.10;14.43;;;4.00;99.90;;;;;;5085593;28;20547;-78
2022/11/29 12:58:41;;;;;;;28.07;17.80;;;4.10;99.90;;;;;;5089573;27;20480;-78
2022/11/29 13:01:19;;;;;;;23.60;14.50;;;4.00;99.90;;;;;;5089611;28;20485;-80
2022/11/29 13:03:56;;;;;;;22.30;14.47;;;4.00;99.90;;;;;;5086791;28;20458;-77
2022/11/29 13:06:34;;;;;;;27.37;15.07;;;4.00;99.90;;;;;;5088187;27;20490;-76
2022/11/29 13:09:34;;;;;;;23.30;14.17;;;4.10;99.90;;;;;;5072466;28;20466;-76
2022/11/29 13:12:05;;;;;;;28.53;17.67;;;4.10;99.90;;;;;;5080626;28;20458;-75
2022/11/29 13:14:40;;;;;;;22.60;14.27;;;4.10;99.90;;;;;;5089363;27;20566;-76
2022/11/29 13:17:22;;;;;;;30.80;17.63;;;4.10;99.90;;;;;;5087887;27;20454;-75
2022/11/29 13:19:53;;;;;;;29.33;17.20;;;4.10;99.90;;;;;;5090595;28;20439;-75